sensor_id;sensor_type;location;lat;lon;timestamp;pressure;altitude;pressure_sealevel;temperature;humidity
16016;BME280;8112;53.592;10.184;2023-02-21T00:01:22;101075.66;;;8.38;100.00
16016;BME280;8112;53.592;10.184;2023-02-21T00:06:42;101077.38;;;8.39;100.00
16016;BME280;8112;53.592;10.184;2023-02-21T00:12:03;101072.25;;;8.36;100.00
16016;BME280;8112;53.592;10.184;2023-02-21T00:17:23;101084.34;;;8.40;100.00
16016;BME280;8112;53.592;10.184;2023-02-21T00:22:44;101087.97;;;8.38;100.00
16016;BME280;8112;53.592;10.184;2023-02-21T00:28:05;101097.09;;;8.29;100.00
16016;BME280;8112;53.592;10.184;2023-02-21T00:33:25;101096.00;;;8.35;100.00
16016;BME280;8112;53.592;10.184;2023-02-21T00:38:46;101102.34;;;8.29;100.00
16016;BME280;8112;53.592;10.184;2023-02-21T00:44:09;101095.41;;;8.28;100.00
16016;BME280;8112;53.592;10.184;2023-02-21T00:49:29;101098.81;;;8.30;100.00
16016;BME280;8112;53.592;10.184;2023-02-21T00:54:48;101107.50;;;8.31;100.00
16016;BME280;8112;53.592;10.184;2023-02-21T01:00:15;101106.03;;;8.25;100.00
16016;BME280;8112;53.592;10.184;2023-02-21T01:05:35;101118.25;;;8.26;100.00
16016;BME280;8112;53.592;10.184;2023-02-21T01:10:56;101107.84;;;8.23;100.00
16016;BME280;8112;53.592;10.184;2023-02-21T01:16:19;101114.69;;;8.27;100.00
16016;BME280;8112;53.592;10.184;2023-02-21T01:21:38;101120.09;;;8.24;100.00
16016;BME280;8112;53.592;10.184;2023-02-21T01:26:57;101125.44;;;8.21;100.00
16016;BME280;8112;53.592;10.184;2023-02-21T01:32:18;101112.31;;;8.21;100.00
16016;BME280;8112;53.592;10.184;2023-02-21T01:37:38;101115.06;;;8.18;100.00
16016;BME280;8112;53.592;10.184;2023-02-21T01:42:58;101119.50;;;8.17;100.00
16016;BME280;8112;53.592;10.184;2023-02-21T01:48:21;101117.06;;;8.12;100.00
16016;BME280;8112;53.592;10.184;2023-02-21T01:53:42;101114.34;;;8.14;100.00
16016;BME280;8112;53.592;10.184;2023-02-21T01:59:02;101120.72;;;8.08;100.00
16016;BME280;8112;53.592;10.184;2023-02-21T02:04:23;101123.22;;;8.11;100.00
16016;BME280;8112;53.592;10.184;2023-02-21T02:09:43;101122.31;;;8.12;100.00
16016;BME280;8112;53.592;10.184;2023-02-21T02:15:22;101109.22;;;8.11;100.00
16016;BME280;8112;53.592;10.184;2023-02-21T02:26:46;101105.22;;;8.02;100.00
16016;BME280;8112;53.592;10.184;2023-02-21T02:32:13;101110.25;;;8.08;100.00
16016;BME280;8112;53.592;10.184;2023-02-21T02:37:29;101108.91;;;7.98;100.00
16016;BME280;8112;53.592;10.184;2023-02-21T02:42:42;101108.63;;;8.04;100.00
16016;BME280;8112;53.592;10.184;2023-02-21T02:47:52;101117.31;;;8.06;100.00
16016;BME280;8112;53.592;10.184;2023-02-21T02:53:01;101117.44;;;8.03;100.00
16016;BME280;8112;53.592;10.184;2023-02-21T02:58:04;101108.53;;;8.07;100.00
16016;BME280;8112;53.592;10.184;2023-02-21T03:03:22;101112.19;;;8.03;100.00
16016;BME280;8112;53.592;10.184;2023-02-21T03:08:40;101115.66;;;8.04;100.00
16016;BME280;8112;53.592;10.184;2023-02-21T03:13:48;101114.75;;;8.05;100.00
16016;BME280;8112;53.592;10.184;2023-02-21T03:18:57;101115.81;;;8.01;100.00
16016;BME280;8112;53.592;10.184;2023-02-21T03:24:04;101122.81;;;8.00;100.00
16016;BME280;8112;53.592;10.184;2023-02-21T03:29:07;101108.16;;;7.94;100.00
16016;BME280;8112;53.592;10.184;2023-02-21T03:34:09;101113.63;;;7.90;100.00
16016;BME280;8112;53.592;10.184;2023-02-21T03:39:13;101117.38;;;7.84;100.00
16016;BME280;8112;53.592;10.184;2023-02-21T03:44:15;101125.28;;;7.82;100.00
16016;BME280;8112;53.592;10.184;2023-02-21T03:49:18;101122.97;;;7.75;100.00
16016;BME280;8112;53.592;10.184;2023-02-21T03:54:21;101137.28;;;7.67;100.00
16016;BME280;8112;53.592;10.184;2023-02-21T03:59:27;101127.75;;;7.65;100.00
16016;BME280;8112;53.592;10.184;2023-02-21T04:04:29;101128.75;;;7.62;100.00
16016;BME280;8112;53.592;10.184;2023-02-21T04:09:41;101128.13;;;7.55;100.00
16016;BME280;8112;53.592;10.184;2023-02-21T04:14:46;101136.78;;;7.58;100.00
16016;BME280;8112;53.592;10.184;2023-02-21T04:19:48;101128.97;;;7.56;100.00
16016;BME280;8112;53.592;10.184;2023-02-21T04:24:52;101128.66;;;7.64;100.00
16016;BME280;8112;53.592;10.184;2023-02-21T04:29:57;101134.94;;;7.60;100.00
16016;BME280;8112;53.592;10.184;2023-02-21T04:35:03;101131.53;;;7.58;100.00
16016;BME280;8112;53.592;10.184;2023-02-21T04:40:07;101120.56;;;7.48;100.00
16016;BME280;8112;53.592;10.184;2023-02-21T04:45:10;101122.88;;;7.55;100.00
16016;BME280;8112;53.592;10.184;2023-02-21T04:50:12;101127.50;;;7.49;100.00
16016;BME280;8112;53.592;10.184;2023-02-21T04:55:15;101114.97;;;7.35;100.00
16016;BME280;8112;53.592;10.184;2023-02-21T05:00:17;101118.84;;;7.24;100.00
16016;BME280;8112;53.592;10.184;2023-02-21T05:05:19;101114.75;;;7.17;100.00
16016;BME280;8112;53.592;10.184;2023-02-21T05:10:23;101101.25;;;7.04;100.00
16016;BME280;8112;53.592;10.184;2023-02-21T05:15:25;101107.81;;;6.92;100.00
16016;BME280;8112;53.592;10.184;2023-02-21T05:20:27;101123.66;;;6.89;100.00
16016;BME280;8112;53.592;10.184;2023-02-21T05:25:30;101129.88;;;6.87;100.00
16016;BME280;8112;53.592;10.184;2023-02-21T05:30:32;101126.50;;;6.83;100.00
16016;BME280;8112;53.592;10.184;2023-02-21T05:35:34;101128.34;;;6.81;100.00
16016;BME280;8112;53.592;10.184;2023-02-21T05:40:39;101135.41;;;6.79;100.00
16016;BME280;8112;53.592;10.184;2023-02-21T05:45:42;101149.19;;;6.84;100.00
16016;BME280;8112;53.592;10.184;2023-02-21T05:50:44;101148.16;;;6.88;100.00
16016;BME280;8112;53.592;10.184;2023-02-21T05:55:48;101155.91;;;6.91;100.00
16016;BME280;8112;53.592;10.184;2023-02-21T06:00:50;101158.78;;;6.83;100.00
16016;BME280;8112;53.592;10.184;2023-02-21T06:05:52;101170.81;;;6.89;100.00
16016;BME280;8112;53.592;10.184;2023-02-21T06:10:56;101159.91;;;7.02;100.00
16016;BME280;8112;53.592;10.184;2023-02-21T06:15:58;101169.78;;;6.93;100.00
16016;BME280;8112;53.592;10.184;2023-02-21T06:21:03;101170.78;;;6.91;100.00
16016;BME280;8112;53.592;10.184;2023-02-21T06:26:06;101163.06;;;6.86;100.00
16016;BME280;8112;53.592;10.184;2023-02-21T06:31:09;101174.50;;;6.83;100.00
16016;BME280;8112;53.592;10.184;2023-02-21T06:36:13;101174.00;;;6.74;100.00
16016;BME280;8112;53.592;10.184;2023-02-21T06:41:18;101174.84;;;6.74;100.00
16016;BME280;8112;53.592;10.184;2023-02-21T06:46:26;101180.25;;;6.69;100.00
16016;BME280;8112;53.592;10.184;2023-02-21T06:51:33;101172.56;;;6.65;100.00
16016;BME280;8112;53.592;10.184;2023-02-21T06:56:36;101177.97;;;6.60;100.00
16016;BME280;8112;53.592;10.184;2023-02-21T07:01:38;101178.66;;;6.65;100.00
16016;BME280;8112;53.592;10.184;2023-02-21T07:06:40;101184.69;;;6.67;100.00
16016;BME280;8112;53.592;10.184;2023-02-21T07:11:43;101178.28;;;6.76;100.00
16016;BME280;8112;53.592;10.184;2023-02-21T07:16:46;101186.88;;;6.80;100.00
16016;BME280;8112;53.592;10.184;2023-02-21T07:21:48;101189.75;;;6.97;100.00
16016;BME280;8112;53.592;10.184;2023-02-21T07:26:55;101194.41;;;7.13;100.00
16016;BME280;8112;53.592;10.184;2023-02-21T07:31:57;101180.91;;;7.24;100.00
16016;BME280;8112;53.592;10.184;2023-02-21T07:36:59;101181.59;;;7.29;100.00
16016;BME280;8112;53.592;10.184;2023-02-21T07:42:03;101181.19;;;7.40;100.00
16016;BME280;8112;53.592;10.184;2023-02-21T07:47:07;101182.53;;;7.50;100.00
16016;BME280;8112;53.592;10.184;2023-02-21T07:52:10;101190.56;;;7.46;100.00
16016;BME280;8112;53.592;10.184;2023-02-21T07:57:14;101200.78;;;7.53;100.00
16016;BME280;8112;53.592;10.184;2023-02-21T08:02:16;101206.31;;;7.68;100.00
16016;BME280;8112;53.592;10.184;2023-02-21T08:07:18;101196.13;;;7.82;100.00
16016;BME280;8112;53.592;10.184;2023-02-21T08:12:22;101198.22;;;7.96;100.00
16016;BME280;8112;53.592;10.184;2023-02-21T08:17:24;101195.25;;;8.04;100.00
16016;BME280;8112;53.592;10.184;2023-02-21T08:22:26;101194.50;;;8.23;100.00
16016;BME280;8112;53.592;10.184;2023-02-21T08:27:32;101185.19;;;8.36;100.00
16016;BME280;8112;53.592;10.184;2023-02-21T08:32:34;101194.28;;;8.50;100.00
16016;BME280;8112;53.592;10.184;2023-02-21T08:37:35;101191.97;;;8.42;100.00
16016;BME280;8112;53.592;10.184;2023-02-21T08:42:49;101190.16;;;8.22;100.00
16016;BME280;8112;53.592;10.184;2023-02-21T08:47:52;101188.88;;;8.32;100.00
16016;BME280;8112;53.592;10.184;2023-02-21T08:52:55;101201.34;;;8.48;100.00
16016;BME280;8112;53.592;10.184;2023-02-21T08:57:58;101201.84;;;8.58;100.00
16016;BME280;8112;53.592;10.184;2023-02-21T09:03:00;101199.94;;;8.61;100.00
16016;BME280;8112;53.592;10.184;2023-02-21T09:08:07;101188.03;;;8.73;100.00
16016;BME280;8112;53.592;10.184;2023-02-21T09:13:20;101199.25;;;8.97;100.00
16016;BME280;8112;53.592;10.184;2023-02-21T09:18:24;101197.44;;;8.98;100.00
16016;BME280;8112;53.592;10.184;2023-02-21T09:23:28;101203.13;;;8.89;100.00
16016;BME280;8112;53.592;10.184;2023-02-21T09:28:32;101201.06;;;8.95;100.00
16016;BME280;8112;53.592;10.184;2023-02-21T09:33:35;101209.03;;;9.13;100.00
16016;BME280;8112;53.592;10.184;2023-02-21T09:38:42;101223.72;;;9.38;100.00
16016;BME280;8112;53.592;10.184;2023-02-21T09:43:47;101222.66;;;9.42;100.00
16016;BME280;8112;53.592;10.184;2023-02-21T09:48:51;101237.34;;;9.46;100.00
16016;BME280;8112;53.592;10.184;2023-02-21T09:53:55;101230.81;;;9.55;100.00
16016;BME280;8112;53.592;10.184;2023-02-21T09:59:01;101219.72;;;9.67;100.00
16016;BME280;8112;53.592;10.184;2023-02-21T10:04:10;101215.22;;;10.06;100.00
16016;BME280;8112;53.592;10.184;2023-02-21T10:09:26;101225.09;;;10.20;100.00
16016;BME280;8112;53.592;10.184;2023-02-21T10:14:48;101225.91;;;10.03;100.00
16016;BME280;8112;53.592;10.184;2023-02-21T10:20:00;101231.75;;;10.27;100.00
16016;BME280;8112;53.592;10.184;2023-02-21T10:25:17;101229.28;;;10.24;100.00
16016;BME280;8112;53.592;10.184;2023-02-21T10:30:28;101227.28;;;10.47;100.00
16016;BME280;8112;53.592;10.184;2023-02-21T10:35:37;101223.97;;;10.44;100.00
16016;BME280;8112;53.592;10.184;2023-02-21T10:40:42;101218.97;;;10.73;100.00
16016;BME280;8112;53.592;10.184;2023-02-21T10:45:52;101229.31;;;10.42;100.00
16016;BME280;8112;53.592;10.184;2023-02-21T10:51:05;101237.22;;;10.42;100.00
16016;BME280;8112;53.592;10.184;2023-02-21T10:56:24;101226.88;;;10.73;100.00
16016;BME280;8112;53.592;10.184;2023-02-21T11:01:34;101231.75;;;10.80;100.00
16016;BME280;8112;53.592;10.184;2023-02-21T11:06:43;101232.06;;;11.58;100.00
16016;BME280;8112;53.592;10.184;2023-02-21T11:11:45;101232.31;;;11.69;100.00
16016;BME280;8112;53.592;10.184;2023-02-21T11:17:15;101233.25;;;11.36;100.00
16016;BME280;8112;53.592;10.184;2023-02-21T11:22:22;101222.00;;;11.80;100.00
16016;BME280;8112;53.592;10.184;2023-02-21T11:27:26;101222.16;;;11.93;100.00
16016;BME280;8112;53.592;10.184;2023-02-21T11:32:32;101215.06;;;12.26;100.00
16016;BME280;8112;53.592;10.184;2023-02-21T11:37:48;101184.72;;;13.06;100.00
16016;BME280;8112;53.592;10.184;2023-02-21T11:43:09;101201.91;;;12.98;100.00
16016;BME280;8112;53.592;10.184;2023-02-21T11:48:17;101203.72;;;13.69;100.00
16016;BME280;8112;53.592;10.184;2023-02-21T11:53:23;101199.75;;;13.76;100.00
16016;BME280;8112;53.592;10.184;2023-02-21T11:58:33;101200.06;;;13.01;100.00
16016;BME280;8112;53.592;10.184;2023-02-21T12:09:17;101214.72;;;12.16;100.00
16016;BME280;8112;53.592;10.184;2023-02-21T12:14:39;101204.63;;;12.08;100.00
16016;BME280;8112;53.592;10.184;2023-02-21T12:20:02;101203.16;;;11.87;100.00
16016;BME280;8112;53.592;10.184;2023-02-21T12:25:15;101207.59;;;12.02;100.00
16016;BME280;8112;53.592;10.184;2023-02-21T12:30:41;101218.34;;;11.67;100.00
16016;BME280;8112;53.592;10.184;2023-02-21T12:36:11;101211.94;;;11.23;100.00
16016;BME280;8112;53.592;10.184;2023-02-21T12:41:27;101211.00;;;11.08;100.00
16016;BME280;8112;53.592;10.184;2023-02-21T12:46:35;101221.97;;;10.82;100.00
16016;BME280;8112;53.592;10.184;2023-02-21T12:51:46;101218.75;;;10.60;100.00
16016;BME280;8112;53.592;10.184;2023-02-21T12:56:54;101224.25;;;10.73;100.00
16016;BME280;8112;53.592;10.184;2023-02-21T13:02:03;101224.00;;;11.11;100.00
16016;BME280;8112;53.592;10.184;2023-02-21T13:07:15;101235.38;;;10.95;100.00
16016;BME280;8112;53.592;10.184;2023-02-21T13:12:28;101219.97;;;10.70;100.00
16016;BME280;8112;53.592;10.184;2023-02-21T13:17:34;101226.66;;;10.60;100.00
16016;BME280;8112;53.592;10.184;2023-02-21T13:28:42;101216.34;;;10.73;100.00
16016;BME280;8112;53.592;10.184;2023-02-21T13:33:49;101225.88;;;10.75;100.00
16016;BME280;8112;53.592;10.184;2023-02-21T13:39:04;101225.97;;;10.56;100.00
16016;BME280;8112;53.592;10.184;2023-02-21T13:44:17;101219.53;;;10.62;100.00
16016;BME280;8112;53.592;10.184;2023-02-21T13:49:40;101202.66;;;11.00;100.00
16016;BME280;8112;53.592;10.184;2023-02-21T13:55:18;101204.81;;;11.41;100.00
16016;BME280;8112;53.592;10.184;2023-02-21T14:00:46;101208.06;;;11.30;100.00
16016;BME280;8112;53.592;10.184;2023-02-21T14:06:24;101203.88;;;11.42;100.00
16016;BME280;8112;53.592;10.184;2023-02-21T14:11:36;101205.38;;;11.14;100.00
16016;BME280;8112;53.592;10.184;2023-02-21T14:16:49;101207.63;;;10.88;100.00
16016;BME280;8112;53.592;10.184;2023-02-21T14:21:59;101202.94;;;10.60;100.00
16016;BME280;8112;53.592;10.184;2023-02-21T14:27:04;101201.97;;;10.45;100.00
16016;BME280;8112;53.592;10.184;2023-02-21T14:32:32;101207.19;;;10.27;100.00
16016;BME280;8112;53.592;10.184;2023-02-21T14:37:38;101207.66;;;10.18;100.00
16016;BME280;8112;53.592;10.184;2023-02-21T14:42:53;101220.97;;;10.15;100.00
16016;BME280;8112;53.592;10.184;2023-02-21T14:48:14;101211.81;;;10.04;100.00
16016;BME280;8112;53.592;10.184;2023-02-21T14:53:41;101210.84;;;9.88;100.00
16016;BME280;8112;53.592;10.184;2023-02-21T14:59:06;101225.09;;;9.83;100.00
16016;BME280;8112;53.592;10.184;2023-02-21T15:04:33;101225.81;;;9.87;100.00
16016;BME280;8112;53.592;10.184;2023-02-21T15:09:37;101231.09;;;9.68;100.00
16016;BME280;8112;53.592;10.184;2023-02-21T15:14:40;101228.13;;;9.57;100.00
16016;BME280;8112;53.592;10.184;2023-02-21T15:20:01;101231.31;;;9.63;100.00
16016;BME280;8112;53.592;10.184;2023-02-21T15:25:17;101234.66;;;9.67;100.00
16016;BME280;8112;53.592;10.184;2023-02-21T15:30:23;101233.38;;;9.57;100.00
16016;BME280;8112;53.592;10.184;2023-02-21T15:35:31;101231.19;;;9.66;100.00
16016;BME280;8112;53.592;10.184;2023-02-21T15:40:34;101221.94;;;9.58;100.00
16016;BME280;8112;53.592;10.184;2023-02-21T15:45:42;101236.88;;;9.38;100.00
16016;BME280;8112;53.592;10.184;2023-02-21T15:50:47;101234.78;;;9.25;100.00
16016;BME280;8112;53.592;10.184;2023-02-21T15:55:51;101239.91;;;9.29;100.00
16016;BME280;8112;53.592;10.184;2023-02-21T16:01:03;101240.47;;;9.16;100.00
16016;BME280;8112;53.592;10.184;2023-02-21T16:06:16;101238.31;;;9.05;100.00
16016;BME280;8112;53.592;10.184;2023-02-21T16:11:19;101245.09;;;8.90;100.00
16016;BME280;8112;53.592;10.184;2023-02-21T16:16:22;101242.66;;;8.86;100.00
16016;BME280;8112;53.592;10.184;2023-02-21T16:21:27;101250.88;;;8.78;100.00
16016;BME280;8112;53.592;10.184;2023-02-21T16:26:32;101261.75;;;8.70;100.00
16016;BME280;8112;53.592;10.184;2023-02-21T16:31:34;101261.84;;;8.67;100.00
16016;BME280;8112;53.592;10.184;2023-02-21T16:36:40;101266.41;;;8.63;100.00
16016;BME280;8112;53.592;10.184;2023-02-21T16:41:42;101265.50;;;8.64;100.00
16016;BME280;8112;53.592;10.184;2023-02-21T16:46:44;101270.06;;;8.59;100.00
16016;BME280;8112;53.592;10.184;2023-02-21T16:51:48;101274.53;;;8.57;100.00
16016;BME280;8112;53.592;10.184;2023-02-21T16:56:53;101283.47;;;8.53;100.00
16016;BME280;8112;53.592;10.184;2023-02-21T17:01:57;101291.22;;;8.56;100.00
16016;BME280;8112;53.592;10.184;2023-02-21T17:07:03;101289.59;;;8.53;100.00
16016;BME280;8112;53.592;10.184;2023-02-21T17:12:10;101287.13;;;8.49;100.00
16016;BME280;8112;53.592;10.184;2023-02-21T17:17:15;101301.03;;;8.52;100.00
16016;BME280;8112;53.592;10.184;2023-02-21T17:22:19;101309.72;;;8.53;100.00
16016;BME280;8112;53.592;10.184;2023-02-21T17:27:22;101314.22;;;8.49;100.00
16016;BME280;8112;53.592;10.184;2023-02-21T17:32:24;101311.91;;;8.41;100.00
16016;BME280;8112;53.592;10.184;2023-02-21T17:37:27;101316.44;;;8.38;100.00
16016;BME280;8112;53.592;10.184;2023-02-21T17:42:32;101325.72;;;8.47;100.00
16016;BME280;8112;53.592;10.184;2023-02-21T17:47:34;101330.19;;;8.45;100.00
16016;BME280;8112;53.592;10.184;2023-02-21T17:52:37;101337.59;;;8.35;100.00
16016;BME280;8112;53.592;10.184;2023-02-21T17:57:40;101341.91;;;8.36;100.00
16016;BME280;8112;53.592;10.184;2023-02-21T18:02:42;101346.38;;;8.34;100.00
16016;BME280;8112;53.592;10.184;2023-02-21T18:07:47;101350.41;;;8.43;100.00
16016;BME280;8112;53.592;10.184;2023-02-21T18:12:49;101353.94;;;8.41;100.00
16016;BME280;8112;53.592;10.184;2023-02-21T18:17:51;101367.97;;;8.40;100.00
16016;BME280;8112;53.592;10.184;2023-02-21T18:22:54;101361.16;;;8.36;100.00
16016;BME280;8112;53.592;10.184;2023-02-21T18:27:57;101366.53;;;8.33;100.00
16016;BME280;8112;53.592;10.184;2023-02-21T18:33:00;101371.78;;;8.33;100.00
16016;BME280;8112;53.592;10.184;2023-02-21T18:38:04;101378.88;;;8.31;100.00
16016;BME280;8112;53.592;10.184;2023-02-21T18:43:13;101377.41;;;8.24;100.00
16016;BME280;8112;53.592;10.184;2023-02-21T18:48:18;101378.50;;;8.18;100.00
16016;BME280;8112;53.592;10.184;2023-02-21T18:53:22;101377.25;;;8.05;100.00
16016;BME280;8112;53.592;10.184;2023-02-21T18:58:24;101386.28;;;7.97;100.00
16016;BME280;8112;53.592;10.184;2023-02-21T19:03:27;101397.06;;;7.90;100.00
16016;BME280;8112;53.592;10.184;2023-02-21T19:08:30;101400.06;;;7.79;100.00
16016;BME280;8112;53.592;10.184;2023-02-21T19:13:34;101400.91;;;7.79;100.00
16016;BME280;8112;53.592;10.184;2023-02-21T19:18:36;101403.31;;;7.85;100.00
16016;BME280;8112;53.592;10.184;2023-02-21T19:23:40;101403.91;;;7.94;100.00
16016;BME280;8112;53.592;10.184;2023-02-21T19:28:42;101413.47;;;7.95;100.00
16016;BME280;8112;53.592;10.184;2023-02-21T19:33:44;101409.94;;;7.96;100.00
16016;BME280;8112;53.592;10.184;2023-02-21T19:38:47;101417.56;;;8.02;100.00
16016;BME280;8112;53.592;10.184;2023-02-21T19:43:49;101421.06;;;8.03;100.00
16016;BME280;8112;53.592;10.184;2023-02-21T19:48:51;101431.56;;;8.03;100.00
16016;BME280;8112;53.592;10.184;2023-02-21T19:53:57;101432.19;;;8.09;100.00
16016;BME280;8112;53.592;10.184;2023-02-21T19:58:59;101428.53;;;8.13;100.00
16016;BME280;8112;53.592;10.184;2023-02-21T20:04:01;101439.44;;;8.26;100.00
16016;BME280;8112;53.592;10.184;2023-02-21T20:09:07;101444.69;;;8.26;100.00
16016;BME280;8112;53.592;10.184;2023-02-21T20:14:10;101437.78;;;8.24;100.00
16016;BME280;8112;53.592;10.184;2023-02-21T20:19:13;101440.34;;;8.25;100.00
16016;BME280;8112;53.592;10.184;2023-02-21T20:24:16;101440.97;;;8.32;100.00
16016;BME280;8112;53.592;10.184;2023-02-21T20:29:21;101442.94;;;8.27;100.00
16016;BME280;8112;53.592;10.184;2023-02-21T20:34:25;101444.06;;;8.20;100.00
16016;BME280;8112;53.592;10.184;2023-02-21T20:39:29;101435.47;;;8.16;100.00
16016;BME280;8112;53.592;10.184;2023-02-21T20:44:33;101440.91;;;8.10;100.00
16016;BME280;8112;53.592;10.184;2023-02-21T20:49:35;101438.56;;;8.02;100.00
16016;BME280;8112;53.592;10.184;2023-02-21T20:54:43;101445.78;;;7.97;100.00
16016;BME280;8112;53.592;10.184;2023-02-21T20:59:47;101448.50;;;7.94;100.00
16016;BME280;8112;53.592;10.184;2023-02-21T21:04:49;101451.28;;;7.89;100.00
16016;BME280;8112;53.592;10.184;2023-02-21T21:10:01;101449.06;;;7.78;100.00
16016;BME280;8112;53.592;10.184;2023-02-21T21:15:04;101457.72;;;7.80;100.00
16016;BME280;8112;53.592;10.184;2023-02-21T21:20:09;101451.81;;;7.75;100.00
16016;BME280;8112;53.592;10.184;2023-02-21T21:25:15;101467.53;;;7.75;100.00
16016;BME280;8112;53.592;10.184;2023-02-21T21:30:18;101462.22;;;7.77;100.00
16016;BME280;8112;53.592;10.184;2023-02-21T21:35:21;101459.56;;;7.78;100.00
16016;BME280;8112;53.592;10.184;2023-02-21T21:40:30;101475.19;;;7.81;100.00
16016;BME280;8112;53.592;10.184;2023-02-21T21:45:34;101468.13;;;7.83;100.00
16016;BME280;8112;53.592;10.184;2023-02-21T21:50:44;101469.63;;;7.91;100.00
16016;BME280;8112;53.592;10.184;2023-02-21T21:55:48;101471.34;;;7.92;100.00
16016;BME280;8112;53.592;10.184;2023-02-21T22:00:50;101466.28;;;7.85;100.00
16016;BME280;8112;53.592;10.184;2023-02-21T22:05:52;101476.59;;;7.92;100.00
16016;BME280;8112;53.592;10.184;2023-02-21T22:10:59;101478.28;;;7.93;100.00
16016;BME280;8112;53.592;10.184;2023-02-21T22:16:02;101466.38;;;7.84;100.00
16016;BME280;8112;53.592;10.184;2023-02-21T22:21:06;101461.50;;;7.73;100.00
16016;BME280;8112;53.592;10.184;2023-02-21T22:26:15;101461.78;;;7.65;100.00
16016;BME280;8112;53.592;10.184;2023-02-21T22:31:18;101466.31;;;7.60;100.00
16016;BME280;8112;53.592;10.184;2023-02-21T22:36:22;101462.78;;;7.61;100.00
16016;BME280;8112;53.592;10.184;2023-02-21T22:41:30;101462.59;;;7.66;100.00
16016;BME280;8112;53.592;10.184;2023-02-21T22:46:38;101453.03;;;7.65;100.00
16016;BME280;8112;53.592;10.184;2023-02-21T22:51:42;101455.13;;;7.55;100.00
16016;BME280;8112;53.592;10.184;2023-02-21T22:56:46;101458.38;;;7.62;100.00
16016;BME280;8112;53.592;10.184;2023-02-21T23:01:51;101461.63;;;7.70;100.00
16016;BME280;8112;53.592;10.184;2023-02-21T23:07:10;101450.88;;;7.76;100.00
16016;BME280;8112;53.592;10.184;2023-02-21T23:12:15;101442.06;;;7.79;100.00
16016;BME280;8112;53.592;10.184;2023-02-21T23:17:22;101445.28;;;7.85;100.00
16016;BME280;8112;53.592;10.184;2023-02-21T23:22:27;101433.22;;;7.81;100.00
16016;BME280;8112;53.592;10.184;2023-02-21T23:27:29;101436.63;;;7.83;100.00
16016;BME280;8112;53.592;10.184;2023-02-21T23:32:33;101427.13;;;7.81;100.00
16016;BME280;8112;53.592;10.184;2023-02-21T23:37:45;101423.38;;;7.87;100.00
16016;BME280;8112;53.592;10.184;2023-02-21T23:42:49;101423.50;;;7.83;100.00
16016;BME280;8112;53.592;10.184;2023-02-21T23:47:54;101424.22;;;7.89;100.00
16016;BME280;8112;53.592;10.184;2023-02-21T23:52:58;101428.56;;;7.90;100.00
16016;BME280;8112;53.592;10.184;2023-02-21T23:58:03;101427.63;;;7.91;100.00
